Terminal Aerodrome Forecast
Issued by NWS

Home | Current Version | Previous Version | Text Only | Print | Product List | Glossary On
Versions: 1 2 3 4 5 6 7 8 9 10 11 12 13 14 15 16 17 18 19 20 21 22 23 24 25 26
000
FTUS46 KLOX 171700
TAFSBP
TAF
KSBP 171739Z 1718/1818 12006KT 4SM BR BKN008
     FM171930 25008KT P6SM SCT010 BKN200
     FM172200 30010KT P6SM BKN200
     FM180400 VRB03KT 6SM BR OVC008
     FM181400 VRB03KT 6SM BR OVC010=

USA.gov is the U.S. government's official web portal to all federal, state and local government web resources and services.